KCYS/CYS METAR and TAF weather

Enter ICAO airport designator
Station Type Date Time Source
KCYS METAR 2022/01/19 18:53 UTC NOAA

KCYS 191853Z 05005KT 1 1/2SM -SN BR OVC020 M11/M13 A3021 RMK AO2 SLP295 P0001 T11061128


Station Type Date Time Source
KCYS Decoded METAR 2022/01/19 18:53 UTC NOAA

CHEYENNE AIRPORT, WY, United States (KCYS) 41-09N 104-48W 1865M
Jan 19, 2022 - 01:53 PM EST / 2022.01.19 1853 UTC
Wind: from the NE (050 degrees) at 6 MPH (5 KT):0
Visibility: 1 1/2 mile(s):0
Sky conditions: overcast
Weather: light snow; mist
Precipitation last hour: 0.01 inches
Temperature: 12.9 F (-10.6 C)
Windchill: 3 F (-16 C):1
Dew Point: 9.0 F (-12.8 C)
Relative Humidity: 83%
Pressure (altimeter): 30.21 in. Hg (1023 hPa)
ob: KCYS 191853Z 05005KT 1 1/2SM -SN BR OVC020 M11/M13 A3021 RMK AO2 SLP295 P0001 T11061128
cycle: 19

Station Type Date Time Source
KCYS TAF 2022/01/19 18:22 UTC NOAA

TAF KCYS 191720Z 1918/2018 02007KT 3SM -SN OVC015
FM200000 22007KT P6SM SCT007 OVC012
FM200600 20005KT P6SM SCT012
FM201200 26008KT P6SM SKC

Example: see airport list